Airfield :
LOGIN :

Register | Disclaimer

   EN    FR    IT 

 










Legend :    VFR   Marginal VFR   IFR   Intensive IFR   Very Intensive IFR
Visi :
Ceiling :
>= 8 km
>= 3000ft
5 to 8 km
1000 to 3000 ft
1500m to 5 km
500 to 1000 ft
800 to 1500m
200 to 500 ft
< 800m
< 200 ft
Symbols :   Thunderstorms  Fog  Heavy snow  Heavy precipitations  Wind > 20 kt
SIGMETs :     Misc.  Thunderstorms  Icing  Turbulence  Mountain Waves  Volcanic Ashes






- Airport Elevation : 183 ft
- IATA code : HAJ


EDDV - Hanover/Langenhagen Int.

CURRENT METAR :
  • 170020Z 17005KT CAVOK 02/01 Q1013

EXPIRED METARs :
  • 162350Z 17005KT CAVOK 03/01 Q1012
  • 162320Z 17005KT CAVOK 03/01 Q1012
  • 162250Z 17005KT 130V210 CAVOK 03/01 Q1012
  • 162220Z 16006KT CAVOK 03/01 Q1012
  • 162150Z 17006KT CAVOK 03/01 Q1012

TAF TAF EDDV
Valid from the 17 at 00:00 until the 18 at 00:00 UTC


162300Z 1700/1724 16005KT CAVOK
BECMG 1700/1702 2500 BCFG
TEMPO 1702/1708 1200 BKN007
BECMG 1703/1706 10004KT
PROB40
TEMPO 1703/1708 0500 FG BKN001
BECMG 1708/1711 04009KT 8000
BECMG 1715/1718 3500 -RADZ BKN007 OVC012
TEMPO 1716/1724 2500 -DZ BR BKN004



MET'MAP, your aeronautical weather chart ! - Copyright ORBIFLY December 2007 - Disclaimer

ORBIFLY MET'MAP TEAM :

Programming & Development : Alexandra Zaïnal
Concept & Development : Baudouin d'Aumeries
Co-Development & Prog : Marc-Olivier Méhu
Technical & hardware support : Manuel Goepfert

Contact : metmap@orbifly.com




SOURCES & CREDITS :

   NOAA